Time;durP1;ratioP1;P1;durP2;ratioP2;P2;SDS_P1;SDS_P2;PMS_P1;PMS_P2;Temp;Humidity;BMP_temperature;BMP_pressure;BME280_temperature;BME280_humidity;BME280_pressure;Samples;Min_cycle;Max_cycle;Signal;HPM_P1;HPM_P2
2021/12/21 00:21:54;;;;;;;38.50;11.77;;;;;;;;;;6181533;22;20540;-90
2021/12/21 00:25:00;;;;;;;22.17;8.37;;;;;;;;;;6219772;23;20175;-92
2021/12/21 00:28:06;;;;;;;24.30;8.90;;;;;;;;;;6220063;23;20187;-92
2021/12/21 00:31:12;;;;;;;19.60;8.33;;;;;;;;;;6220809;23;20219;-90
2021/12/21 00:34:18;;;;;;;21.23;8.33;;;;;;;;;;6222036;23;20198;-89
2021/12/21 00:37:28;;;;;;;36.87;10.77;;;;;;;;;;6222641;23;20212;-91
2021/12/21 00:40:35;;;;;;;22.77;9.30;;;;;;;;;;6221320;23;20216;-92
2021/12/21 00:43:41;;;;;;;21.87;9.63;;;;;;;;;;6220907;23;20214;-91
2021/12/21 00:46:51;;;;;;;31.77;10.97;;;;;;;;;;6218951;23;20200;-89
2021/12/21 00:50:01;;;;;;;20.33;8.80;;;;;;;;;;6221389;23;20176;-91
2021/12/21 00:53:08;;;;;;;20.57;8.97;;;;;;;;;;6219989;23;20219;-91
2021/12/21 01:43:22;;;;;;;17.30;7.17;;;;;;;;;;6196564;22;20215;-92
2021/12/21 01:49:53;;;;;;;15.67;6.97;;;;;;;;;;6237326;23;20171;-91
2021/12/21 01:52:59;;;;;;;15.47;7.50;;;;;;;;;;6220867;23;20171;-90
2021/12/21 01:56:06;;;;;;;13.63;7.43;;;;;;;;;;6219153;23;20599;-90
2021/12/21 01:59:15;;;;;;;16.77;7.43;;;;;;;;;;6218308;23;20175;-91
2021/12/21 02:02:21;;;;;;;14.33;6.63;;;;;;;;;;6218515;23;20204;-91
2021/12/21 02:05:28;;;;;;;14.77;7.13;;;;;;;;;;6237807;23;20195;-93
2021/12/21 02:12:20;;;;;;;15.33;6.63;;;;;;;;;;6219087;23;20187;-91
2021/12/21 02:15:27;;;;;;;17.80;6.70;;;;;;;;;;6220440;23;20175;-89
2021/12/21 03:31:48;;;;;;;14.23;6.57;;;;;;;;;;6168508;22;1720348;-91
2021/12/21 03:34:54;;;;;;;11.87;5.80;;;;;;;;;;6237037;22;20146;-91
2021/12/21 03:38:00;;;;;;;11.17;4.93;;;;;;;;;;6234804;22;20174;-91
2021/12/21 03:41:11;;;;;;;10.00;5.17;;;;;;;;;;6236598;22;20234;-89
2021/12/21 03:44:19;;;;;;;8.93;4.73;;;;;;;;;;6237178;22;20167;-92
2021/12/21 03:47:28;;;;;;;7.83;4.70;;;;;;;;;;6237351;22;20206;-91
2021/12/21 03:50:43;;;;;;;10.33;4.67;;;;;;;;;;6236471;22;20195;-91
2021/12/21 03:53:49;;;;;;;8.37;4.30;;;;;;;;;;6236490;22;20155;-90
2021/12/21 03:56:54;;;;;;;13.67;4.30;;;;;;;;;;6237454;23;20160;-92
2021/12/21 04:00:00;;;;;;;10.87;4.23;;;;;;;;;;6235921;22;20496;-91
2021/12/21 04:03:07;;;;;;;7.97;4.03;;;;;;;;;;6238309;22;20159;-91
2021/12/21 04:06:16;;;;;;;9.40;4.20;;;;;;;;;;6237051;23;20175;-90
2021/12/21 04:09:22;;;;;;;11.67;4.60;;;;;;;;;;6236002;22;20622;-90
2021/12/21 04:12:27;;;;;;;12.17;4.67;;;;;;;;;;6234947;23;20226;-92
2021/12/21 04:15:41;;;;;;;11.77;4.73;;;;;;;;;;6236039;22;20155;-91
2021/12/21 04:18:48;;;;;;;14.10;4.83;;;;;;;;;;6236311;23;20171;-93
2021/12/21 04:21:54;;;;;;;11.60;5.23;;;;;;;;;;6235364;23;20210;-90
2021/12/21 04:24:59;;;;;;;17.47;6.50;;;;;;;;;;6234476;23;20158;-91
2021/12/21 04:28:05;;;;;;;11.13;4.23;;;;;;;;;;6234035;23;20172;-93
2021/12/21 04:31:11;;;;;;;9.23;4.53;;;;;;;;;;6234723;23;20193;-91
2021/12/21 04:34:17;;;;;;;7.97;4.10;;;;;;;;;;6233783;23;20174;-92
2021/12/21 04:37:25;;;;;;;10.57;4.37;;;;;;;;;;6232651;23;20175;-91
2021/12/21 04:40:40;;;;;;;9.17;4.00;;;;;;;;;;6232970;23;20190;-93
2021/12/21 04:43:45;;;;;;;12.07;4.30;;;;;;;;;;6232490;22;20164;-93
2021/12/21 04:46:51;;;;;;;11.13;4.90;;;;;;;;;;6235159;23;20175;-91
2021/12/21 04:49:58;;;;;;;11.77;5.47;;;;;;;;;;6235038;23;20155;-93
2021/12/21 04:53:04;;;;;;;13.47;4.77;;;;;;;;;;6234659;23;20622;-91
2021/12/21 04:56:09;;;;;;;10.50;5.37;;;;;;;;;;6234834;23;20216;-90
2021/12/21 04:59:17;;;;;;;10.20;4.77;;;;;;;;;;6234930;23;20167;-92
2021/12/21 05:05:47;;;;;;;9.60;4.53;;;;;;;;;;6235509;22;20168;-92
2021/12/21 05:09:05;;;;;;;10.47;4.43;;;;;;;;;;6235147;22;20167;-90
2021/12/21 05:12:13;;;;;;;24.80;5.50;;;;;;;;;;6232936;22;20160;-91
2021/12/21 05:15:18;;;;;;;10.77;4.80;;;;;;;;;;6232566;22;20170;-90
2021/12/21 05:18:24;;;;;;;7.07;3.87;;;;;;;;;;6215632;23;20191;-90
2021/12/21 05:21:31;;;;;;;9.33;4.90;;;;;;;;;;6235135;23;20190;-91
2021/12/21 05:24:37;;;;;;;11.20;4.23;;;;;;;;;;6234758;23;20186;-91
2021/12/21 05:27:42;;;;;;;12.57;4.40;;;;;;;;;;6235436;23;20224;-92
2021/12/21 05:30:47;;;;;;;11.30;4.50;;;;;;;;;;6233527;23;20202;-90
2021/12/21 05:33:52;;;;;;;10.07;4.27;;;;;;;;;;6214588;23;20275;-90
2021/12/21 05:37:00;;;;;;;8.70;3.80;;;;;;;;;;6213217;23;20174;-90
2021/12/21 05:40:12;;;;;;;13.23;4.80;;;;;;;;;;6214528;23;20179;-90
2021/12/21 05:43:16;;;;;;;12.37;5.10;;;;;;;;;;6213425;23;20176;-92
2021/12/21 05:46:22;;;;;;;6.73;4.07;;;;;;;;;;6212556;23;20171;-89
2021/12/21 05:49:28;;;;;;;8.43;4.73;;;;;;;;;;6213892;23;20159;-89
2021/12/21 05:52:35;;;;;;;14.07;4.83;;;;;;;;;;6215815;22;20203;-92
2021/12/21 05:55:43;;;;;;;8.07;4.37;;;;;;;;;;6216143;23;20216;-90
2021/12/21 05:58:48;;;;;;;7.13;4.20;;;;;;;;;;6217235;22;20179;-93
2021/12/21 06:01:54;;;;;;;7.93;4.40;;;;;;;;;;6216553;23;20191;-91
2021/12/21 06:04:59;;;;;;;12.57;4.40;;;;;;;;;;6214334;23;20175;-92
2021/12/21 06:08:06;;;;;;;9.97;4.17;;;;;;;;;;6217158;23;20642;-91
2021/12/21 06:11:14;;;;;;;8.20;4.80;;;;;;;;;;6215148;23;20182;-89
2021/12/21 06:14:38;;;;;;;12.87;4.67;;;;;;;;;;6215771;23;20182;-92
2021/12/21 06:28:02;;;;;;;18.10;7.43;;;;;;;;;;6216509;23;20171;-91
2021/12/21 06:31:08;;;;;;;19.80;8.43;;;;;;;;;;6219204;23;20219;-91
2021/12/21 06:34:13;;;;;;;10.60;5.53;;;;;;;;;;6232612;22;20159;-92
2021/12/21 06:37:19;;;;;;;20.73;7.47;;;;;;;;;;6233232;22;20508;-91
2021/12/21 06:40:27;;;;;;;18.50;6.73;;;;;;;;;;6232336;22;20195;-93
2021/12/21 06:43:33;;;;;;;17.23;8.33;;;;;;;;;;6231893;23;20191;-91
2021/12/21 06:46:54;;;;;;;13.03;5.90;;;;;;;;;;6236635;23;20175;-92
2021/12/21 06:53:24;;;;;;;12.17;5.53;;;;;;;;;;6235911;22;20176;-90
2021/12/21 06:56:31;;;;;;;11.33;5.37;;;;;;;;;;6232186;23;20170;-91
2021/12/21 06:59:36;;;;;;;12.33;6.33;;;;;;;;;;6231276;23;20184;-92
2021/12/21 07:02:42;;;;;;;16.27;6.93;;;;;;;;;;6231847;23;20215;-91
2021/12/21 07:05:47;;;;;;;18.83;7.07;;;;;;;;;;6234081;23;20167;-90
2021/12/21 07:09:00;;;;;;;20.77;7.13;;;;;;;;;;6234526;22;20166;-90
2021/12/21 07:12:29;;;;;;;17.17;7.60;;;;;;;;;;6232376;23;20171;-91
2021/12/21 07:18:58;;;;;;;12.97;5.40;;;;;;;;;;6235713;22;20163;-90
2021/12/21 07:22:04;;;;;;;15.00;5.73;;;;;;;;;;6234190;22;20187;-90
2021/12/21 07:25:10;;;;;;;14.63;6.17;;;;;;;;;;6235003;23;20175;-91
2021/12/21 07:28:16;;;;;;;9.83;4.83;;;;;;;;;;6231688;23;20215;-89
2021/12/21 07:31:25;;;;;;;12.53;5.40;;;;;;;;;;6234169;22;20190;-91
2021/12/21 07:34:31;;;;;;;10.73;4.80;;;;;;;;;;6217891;23;20176;-91
2021/12/21 07:37:36;;;;;;;12.93;5.43;;;;;;;;;;6216070;23;20170;-90
2021/12/21 07:40:42;;;;;;;11.33;3.80;;;;;;;;;;6212611;23;20195;-90
2021/12/21 07:43:53;;;;;;;11.23;5.13;;;;;;;;;;6216106;23;20222;-90
2021/12/21 07:46:58;;;;;;;10.33;4.53;;;;;;;;;;6214290;22;20155;-91
2021/12/21 07:50:04;;;;;;;12.20;5.23;;;;;;;;;;6215080;23;20210;-92
2021/12/21 07:53:10;;;;;;;9.83;5.27;;;;;;;;;;6218412;23;20215;-90
2021/12/21 07:56:16;;;;;;;11.37;5.43;;;;;;;;;;6217734;23;20171;-92
2021/12/21 07:59:24;;;;;;;10.83;5.40;;;;;;;;;;6217761;23;20164;-91
2021/12/21 08:02:32;;;;;;;26.67;8.90;;;;;;;;;;6221303;22;20199;-92
2021/12/21 08:15:39;;;;;;;11.87;4.77;;;;;;;;;;6221687;22;20686;-91
2021/12/21 08:22:13;;;;;;;16.07;6.53;;;;;;;;;;6221473;22;20210;-91
2021/12/21 08:25:24;;;;;;;17.00;7.33;;;;;;;;;;6221547;23;20158;-91
